Flight Track Log - Related Links

Times and Time Zones

All times are in EDT time to prevent confusion due to time zone crossing. See the RPA3220 flight status page for this flight to view local times or setup timezone preferences in your user account.

Time Position Orientation Groundspeed Altitude Reporting Facility
EDT Latitude Longitude Course Direction KTS MPH feet Rate Location/Type
Sun 02:53:06 PM 38.8833 -77.0667 99° East 174 200 1,300  Level Potomac TRACON
Sun 02:54:00 PM 39.0394 -76.7904 63° Northeast  Level Estimated
Sun 02:54:12 PM 38.9333 -77.1333 314° West 261 300 4,100  Level Potomac TRACON
Sun 02:55:00 PM 39.1018 -76.7077 61° Northeast  Level Estimated
Sun 02:55:12 PM 39.0167 -77.1500 351° North 296 341 7,400  Level Potomac TRACON
Sun 02:56:00 PM 39.1641 -76.6248 90° East  Level Estimated
Sun 02:56:50 PM 39.0467 -77.0108 74° East 303 349 11,500  Level Washington Center
Sun 02:57:00 PM 39.2264 -76.5418 83° East  Level Estimated
Sun 02:57:51 PM 39.0628 -76.8961 80° East 308 354 14,000  Level Washington Center
Sun 02:58:00 PM 39.2127 -76.4276 99° East  Level FlightAware Approximate
Sun 02:58:52 PM 39.0786 -76.7761 80° East 324 373 16,400  Level Washington Center
Sun 02:59:52 PM 39.0942 -76.6561 80° East 335 386 19,200 2,644 Climbing Washington Center
Sun 03:00:50 PM 39.1097 -76.5358 81° East 335 386 21,600 1,916 Climbing Washington Center
Sun 03:01:51 PM 39.1253 -76.4103 81° East 335 386 23,000 689 Climbing Washington Center
Sun 03:02:52 PM 39.1428 -76.2847 80° East 345 397 23,000 603 Level Washington Center
Sun 03:08:29 PM 39.3970 -75.6150 80° East 100 115 27,000 692 Climbing FlightAware ADS-B
Sun 03:08:39 PM 39.4110 -75.5970 45° Northeast 422 486 27,000  Level FlightAware ADS-B
Sun 03:09:33 PM 39.4800 -75.5090 45° Northeast 424 488 27,000  Level FlightAware ADS-B
Sun 03:10:08 PM 39.5220 -75.4570 44° Northeast 424 488 27,000  Level FlightAware ADS-B
Sun 03:10:46 PM 39.5670 -75.3990 45° Northeast 424 488 27,000  Level FlightAware ADS-B
Sun 03:11:26 PM 39.6150 -75.3390 44° Northeast 424 488 27,000  Level FlightAware ADS-B
Sun 03:12:02 PM 39.6580 -75.2850 44° Northeast 424 488 27,000  Level FlightAware ADS-B
Sun 03:12:38 PM 39.7020 -75.2310 43° Northeast 424 488 27,000  Level FlightAware ADS-B
Sun 03:14:00 PM 39.8633 -74.9817 43° Northeast 403 464 27,000  Level New York Center
Sun 03:15:00 PM 39.9400 -74.8753 47° Northeast 398 458 27,000 -28 Level New York Center
Sun 03:21:06 PM 40.4060 -74.2770 47° Northeast 424 488 26,800 -45 Descending FlightAware ADS-B
Sun 03:21:44 PM 40.4500 -74.2270 41° Northeast 408 470 26,700 -81 Descending FlightAware ADS-B
Sun 03:22:20 PM 40.4930 -74.1760 42° Northeast 408 470 26,700  Level FlightAware ADS-B
Sun 03:22:57 PM 40.5370 -74.1240 42° Northeast 408 470 26,700  Level FlightAware ADS-B
Sun 03:23:35 PM 40.5820 -74.0700 42° Northeast 408 470 26,700  Level FlightAware ADS-B
Sun 03:24:09 PM 40.6220 -74.0220 42° Northeast 408 470 26,700  Level FlightAware ADS-B
Sun 03:24:46 PM 40.6670 -73.9700 41° Northeast 408 470 26,700 -2,661 Level FlightAware ADS-B
Sun 03:26:13 PM 40.6917 -73.6228 41° Northeast 395 455 21,200 -2,680 Descending Boston Center
Sun 03:27:16 PM 40.7381 -73.4794 67° East 405 466 20,000 -1,065 Descending Boston Center
Sun 03:28:17 PM 40.7883 -73.3217 67° East 392 451 19,000 -677 Descending Boston Center
Sun 03:29:20 PM 40.8669 -73.2206 44° Northeast 396 456 18,600 -629 Descending Boston Center
Sun 03:30:21 PM 40.9481 -73.1250 42° Northeast 390 449 17,700 -1,113 Descending Boston Center
Sun 03:31:24 PM 41.0269 -73.0317 42° Northeast 383 441 16,300 -1,452 Descending Boston Center
Sun 03:32:25 PM 41.1028 -72.9411 42° Northeast 370 426 14,700 -1,548 Descending Boston Center
Sun 03:33:28 PM 41.1767 -72.8550 41° Northeast 356 410 13,100 -1,667 Descending Boston Center
Sun 03:33:37 PM 41.1964 -72.8306 43° Northeast 352 405 12,700 -1,475 Descending Boston Center
Sun 03:34:29 PM 41.2494 -72.7694 41° Northeast 348 400 11,600 -1,500 Descending Boston Center
Sun 03:34:41 PM 41.2786 -72.7456 32° Northeast 352 405 11,100 -800 Descending Boston Center
Sun 03:35:29 PM 41.3592 -72.7364 North 350 403 10,800 -545 Descending Boston Center
Sun 03:35:47 PM 41.3831 -72.7514 335° Northwest 363 418 10,500 -750 Descending Boston Center
Sun 03:36:33 PM 41.4450 -72.8008 329° Northwest 353 406 10,000 -492 Descending Boston Center
Sun 03:36:48 PM 41.4647 -72.8178 327° Northwest 334 384 10,000 -984 Level Boston Center
Sun 03:37:34 PM 41.5186 -72.8619 328° Northwest 316 364 9,000 -1,475 Descending Boston Center
Sun 03:37:49 PM 41.5403 -72.8708 343° North 298 343 8,500 -1,619 Descending Boston Center
Sun 03:38:37 PM 41.6028 -72.8781 355° North 286 329 7,300 -1,612 Descending Boston Center
Sun 03:38:56 PM 41.6286 -72.8825 353° North 283 326 6,700 -1,574 Descending Boston Center
Sun 03:39:38 PM 41.6794 -72.8864 357° North 275 316 5,700 -1,600 Descending Boston Center
Sun 03:39:56 PM 41.7028 -72.8775 16° North 268 308 5,100 -1,238 Descending Boston Center
Sun 03:40:41 PM 41.7553 -72.8581 15° North 261 300 4,400 -800 Descending Boston Center
Sun 03:40:56 PM 41.7706 -72.8531 14° North 243 280 4,300 -295 Descending Boston Center
Sun 03:41:42 PM 41.8136 -72.8369 16° North 214 246 4,100 -393 Descending Boston Center
Sun 03:41:57 PM 41.8244 -72.8319 19° North 190 219 3,900 -1,400 Descending Boston Center
Sun 03:42:42 PM 41.8531 -72.8014 38° Northeast 174 200 2,700 -1,524 Descending Boston Center
Sun 03:43:00 PM 41.8608 -72.7903 47° Northeast 154 177 2,300 -1,125 Descending Boston Center
Sun 03:43:46 PM 41.8853 -72.7592 43° Northeast 154 177 1,500 -787 Descending Boston Center
Sun 03:44:01 PM 41.8917 -72.7553 24° Northeast 142 163 1,500 -689 Level Boston Center
Sun 03:44:47 PM 41.9122 -72.7222 50° Northeast 148 170 800 -873 Descending Boston Center
Sun 03:44:56 PM 41.9164 -72.7178 38° Northeast 142 163 700 -571 Descending Boston Center
Sun 03:45:50 PM 41.9397 -72.6864 45° Northeast 140 161 200 -556 Descending Boston Center

Login

Don't have an account? Register now (free) for customized features, flight alerts, and more!